sensor_id;sensor_type;location;lat;lon;timestamp;pressure;altitude;pressure_sealevel;temperature;humidity
65754;BME280;52488;47.502;18.940;2022-12-07T00:02:15;97985.41;;;0.92;99.07
65754;BME280;52488;47.502;18.940;2022-12-07T00:03:18;97981.78;;;0.89;98.99
65754;BME280;52488;47.502;18.940;2022-12-07T00:04:20;97984.78;;;0.86;99.01
65754;BME280;52488;47.502;18.940;2022-12-07T00:05:23;97980.63;;;0.85;99.17
65754;BME280;52488;47.502;18.940;2022-12-07T00:06:26;97979.56;;;0.88;99.19
65754;BME280;52488;47.502;18.940;2022-12-07T00:07:32;97979.16;;;0.84;99.22
65754;BME280;52488;47.502;18.940;2022-12-07T00:08:35;97983.31;;;0.85;99.40
65754;BME280;52488;47.502;18.940;2022-12-07T00:09:38;97975.22;;;0.85;99.29
65754;BME280;52488;47.502;18.940;2022-12-07T00:10:44;97973.75;;;0.84;99.19
65754;BME280;52488;47.502;18.940;2022-12-07T00:11:49;97972.38;;;0.77;99.06
65754;BME280;52488;47.502;18.940;2022-12-07T00:12:52;97969.28;;;0.73;99.08
65754;BME280;52488;47.502;18.940;2022-12-07T00:13:57;97965.19;;;0.66;99.16
65754;BME280;52488;47.502;18.940;2022-12-07T00:15:00;97962.28;;;0.64;99.26
65754;BME280;52488;47.502;18.940;2022-12-07T00:16:10;97959.56;;;0.64;99.25
65754;BME280;52488;47.502;18.940;2022-12-07T00:17:13;97959.88;;;0.61;99.21
65754;BME280;52488;47.502;18.940;2022-12-07T00:18:16;97961.94;;;0.55;99.20
65754;BME280;52488;47.502;18.940;2022-12-07T00:19:19;97952.69;;;0.50;99.31
65754;BME280;52488;47.502;18.940;2022-12-07T00:20:22;97960.38;;;0.46;99.47
65754;BME280;52488;47.502;18.940;2022-12-07T00:21:27;97957.25;;;0.42;99.67
65754;BME280;52488;47.502;18.940;2022-12-07T00:22:30;97954.84;;;0.38;99.81
65754;BME280;52488;47.502;18.940;2022-12-07T00:23:33;97954.84;;;0.38;99.90
65754;BME280;52488;47.502;18.940;2022-12-07T00:24:36;97957.97;;;0.42;99.94
65754;BME280;52488;47.502;18.940;2022-12-07T00:25:39;97949.78;;;0.48;99.94
65754;BME280;52488;47.502;18.940;2022-12-07T00:26:42;97959.84;;;0.47;99.85
65754;BME280;52488;47.502;18.940;2022-12-07T00:27:46;97952.28;;;0.46;99.88
65754;BME280;52488;47.502;18.940;2022-12-07T00:28:55;97951.22;;;0.49;99.80
65754;BME280;52488;47.502;18.940;2022-12-07T00:29:58;97951.47;;;0.51;99.68
65754;BME280;52488;47.502;18.940;2022-12-07T00:31:08;97946.25;;;0.53;99.54
65754;BME280;52488;47.502;18.940;2022-12-07T00:32:11;97950.19;;;0.52;99.40
65754;BME280;52488;47.502;18.940;2022-12-07T00:33:14;97948.53;;;0.49;99.37
65754;BME280;52488;47.502;18.940;2022-12-07T00:34:20;97951.75;;;0.47;99.43
65754;BME280;52488;47.502;18.940;2022-12-07T00:35:23;97952.28;;;0.46;99.49
65754;BME280;52488;47.502;18.940;2022-12-07T00:36:27;97952.13;;;0.38;99.58
65754;BME280;52488;47.502;18.940;2022-12-07T00:37:29;97950.25;;;0.33;99.67
65754;BME280;52488;47.502;18.940;2022-12-07T00:38:34;97946.62;;;0.31;99.78
65754;BME280;52488;47.502;18.940;2022-12-07T00:39:37;97946.91;;;0.27;99.85
65754;BME280;52488;47.502;18.940;2022-12-07T00:40:39;97946.19;;;0.26;99.89
65754;BME280;52488;47.502;18.940;2022-12-07T00:41:42;97951.00;;;0.34;99.89
65754;BME280;52488;47.502;18.940;2022-12-07T00:42:48;97953.91;;;0.36;99.77
65754;BME280;52488;47.502;18.940;2022-12-07T00:43:51;97944.44;;;0.29;99.71
65754;BME280;52488;47.502;18.940;2022-12-07T00:44:54;97949.69;;;0.21;99.83
65754;BME280;52488;47.502;18.940;2022-12-07T00:45:57;97946.81;;;0.19;99.99
65754;BME280;52488;47.502;18.940;2022-12-07T00:47:00;97955.63;;;0.20;100.00
65754;BME280;52488;47.502;18.940;2022-12-07T00:48:03;97946.81;;;0.19;100.00
65754;BME280;52488;47.502;18.940;2022-12-07T00:49:06;97948.97;;;0.21;100.00
65754;BME280;52488;47.502;18.940;2022-12-07T00:50:08;97950.22;;;0.20;100.00
65754;BME280;52488;47.502;18.940;2022-12-07T00:51:13;97950.75;;;0.18;100.00
65754;BME280;52488;47.502;18.940;2022-12-07T00:52:16;97954.47;;;0.15;100.00
65754;BME280;52488;47.502;18.940;2022-12-07T00:53:20;97955.28;;;0.10;100.00
65754;BME280;52488;47.502;18.940;2022-12-07T00:54:23;97950.59;;;0.11;100.00
65754;BME280;52488;47.502;18.940;2022-12-07T00:55:26;97944.78;;;0.07;100.00
65754;BME280;52488;47.502;18.940;2022-12-07T00:56:29;97947.69;;;0.09;100.00
65754;BME280;52488;47.502;18.940;2022-12-07T00:57:32;97941.47;;;0.14;100.00
65754;BME280;52488;47.502;18.940;2022-12-07T00:58:35;97932.94;;;0.10;99.87
65754;BME280;52488;47.502;18.940;2022-12-07T00:59:38;97937.41;;;0.07;99.77
65754;BME280;52488;47.502;18.940;2022-12-07T01:00:42;97937.94;;;0.06;99.71
65754;BME280;52488;47.502;18.940;2022-12-07T01:01:46;97936.16;;;0.08;99.67
65754;BME280;52488;47.502;18.940;2022-12-07T01:02:49;97935.72;;;0.04;99.58
65754;BME280;52488;47.502;18.940;2022-12-07T01:03:55;97939.25;;;-0.01;99.63
65754;BME280;52488;47.502;18.940;2022-12-07T01:04:58;97937.59;;;-0.04;99.83
65754;BME280;52488;47.502;18.940;2022-12-07T01:06:01;97942.75;;;-0.06;100.00
65754;BME280;52488;47.502;18.940;2022-12-07T01:07:04;97938.59;;;-0.07;100.00
65754;BME280;52488;47.502;18.940;2022-12-07T01:08:08;97933.72;;;-0.09;100.00
65754;BME280;52488;47.502;18.940;2022-12-07T01:09:11;97932.75;;;-0.11;100.00
65754;BME280;52488;47.502;18.940;2022-12-07T01:10:14;97933.72;;;-0.09;100.00
65754;BME280;52488;47.502;18.940;2022-12-07T01:11:19;97941.81;;;-0.09;100.00
65754;BME280;52488;47.502;18.940;2022-12-07T01:12:22;97944.72;;;-0.07;100.00
65754;BME280;52488;47.502;18.940;2022-12-07T01:13:25;97944.00;;;-0.07;100.00
65754;BME280;52488;47.502;18.940;2022-12-07T01:14:28;97950.03;;;-0.01;100.00
65754;BME280;52488;47.502;18.940;2022-12-07T01:15:30;97947.56;;;0.01;100.00
65754;BME280;52488;47.502;18.940;2022-12-07T01:16:33;97954.16;;;0.06;100.00
65754;BME280;52488;47.502;18.940;2022-12-07T01:17:36;97944.56;;;0.05;99.95
65754;BME280;52488;47.502;18.940;2022-12-07T01:18:39;97944.06;;;0.06;99.88
65754;BME280;52488;47.502;18.940;2022-12-07T01:19:42;97951.72;;;0.02;99.85
65754;BME280;52488;47.502;18.940;2022-12-07T01:21:03;97945.38;;;-0.01;99.91
65754;BME280;52488;47.502;18.940;2022-12-07T01:22:06;97946.84;;;0.01;100.00
65754;BME280;52488;47.502;18.940;2022-12-07T01:23:09;97944.88;;;0.01;100.00
65754;BME280;52488;47.502;18.940;2022-12-07T01:24:12;97940.22;;;0.02;100.00
65754;BME280;52488;47.502;18.940;2022-12-07T01:25:15;97934.47;;;0.05;100.00
65754;BME280;52488;47.502;18.940;2022-12-07T01:26:21;97938.97;;;0.03;100.00
65754;BME280;52488;47.502;18.940;2022-12-07T01:27:24;97943.91;;;-0.02;100.00
65754;BME280;52488;47.502;18.940;2022-12-07T01:28:28;97936.88;;;-0.05;100.00
65754;BME280;52488;47.502;18.940;2022-12-07T01:29:31;97939.97;;;-0.01;100.00
65754;BME280;52488;47.502;18.940;2022-12-07T01:30:34;97933.25;;;0.06;100.00
65754;BME280;52488;47.502;18.940;2022-12-07T01:31:36;97930.34;;;0.04;100.00
65754;BME280;52488;47.502;18.940;2022-12-07T01:32:39;97931.38;;;0.01;100.00
65754;BME280;52488;47.502;18.940;2022-12-07T01:33:43;97929.41;;;0.02;100.00
65754;BME280;52488;47.502;18.940;2022-12-07T01:34:50;97935.97;;;0.06;100.00
65754;BME280;52488;47.502;18.940;2022-12-07T01:35:53;97934.09;;;0.14;100.00
65754;BME280;52488;47.502;18.940;2022-12-07T01:36:56;97941.19;;;0.17;100.00
65754;BME280;52488;47.502;18.940;2022-12-07T01:37:59;97931.94;;;0.13;100.00
65754;BME280;52488;47.502;18.940;2022-12-07T01:39:05;97930.47;;;0.12;100.00
65754;BME280;52488;47.502;18.940;2022-12-07T01:40:10;97937.34;;;0.13;100.00
65754;BME280;52488;47.502;18.940;2022-12-07T01:41:14;97938.06;;;0.13;100.00
65754;BME280;52488;47.502;18.940;2022-12-07T01:42:17;97945.34;;;0.18;100.00
65754;BME280;52488;47.502;18.940;2022-12-07T01:43:20;97934.75;;;0.20;100.00
65754;BME280;52488;47.502;18.940;2022-12-07T01:44:30;97946.19;;;0.26;100.00
65754;BME280;52488;47.502;18.940;2022-12-07T01:45:40;97939.34;;;0.25;100.00
65754;BME280;52488;47.502;18.940;2022-12-07T01:46:58;97944.44;;;0.29;100.00
65754;BME280;52488;47.502;18.940;2022-12-07T01:48:02;97945.59;;;0.34;100.00
65754;BME280;52488;47.502;18.940;2022-12-07T01:49:08;97937.69;;;0.36;100.00
65754;BME280;52488;47.502;18.940;2022-12-07T01:50:12;97930.22;;;0.42;100.00
65754;BME280;52488;47.502;18.940;2022-12-07T01:51:15;97932.09;;;0.47;100.00
65754;BME280;52488;47.502;18.940;2022-12-07T01:52:28;97930.56;;;0.51;100.00
65754;BME280;52488;47.502;18.940;2022-12-07T01:53:36;97930.75;;;0.53;100.00
65754;BME280;52488;47.502;18.940;2022-12-07T01:54:41;97934.63;;;0.58;100.00
65754;BME280;52488;47.502;18.940;2022-12-07T01:55:49;97933.88;;;0.71;100.00
65754;BME280;52488;47.502;18.940;2022-12-07T01:56:56;97928.19;;;0.74;100.00
65754;BME280;52488;47.502;18.940;2022-12-07T01:58:00;97932.53;;;0.77;100.00
65754;BME280;52488;47.502;18.940;2022-12-07T01:59:03;97927.56;;;0.82;100.00
65754;BME280;52488;47.502;18.940;2022-12-07T02:00:06;97927.97;;;0.86;100.00
65754;BME280;52488;47.502;18.940;2022-12-07T02:01:09;97926.63;;;0.92;100.00
65754;BME280;52488;47.502;18.940;2022-12-07T02:02:19;97927.78;;;0.97;100.00
65754;BME280;52488;47.502;18.940;2022-12-07T02:03:29;97923.28;;;0.99;100.00
65754;BME280;52488;47.502;18.940;2022-12-07T02:04:35;97929.66;;;1.02;100.00
65754;BME280;52488;47.502;18.940;2022-12-07T02:05:40;97924.31;;;1.10;100.00
65754;BME280;52488;47.502;18.940;2022-12-07T02:06:48;97922.56;;;1.12;100.00
65754;BME280;52488;47.502;18.940;2022-12-07T02:07:53;97926.72;;;1.13;100.00
65754;BME280;52488;47.502;18.940;2022-12-07T02:08:57;97923.47;;;1.15;100.00
65754;BME280;52488;47.502;18.940;2022-12-07T02:10:21;97925.16;;;1.18;100.00
65754;BME280;52488;47.502;18.940;2022-12-07T02:11:24;97923.19;;;1.18;100.00
65754;BME280;52488;47.502;18.940;2022-12-07T02:12:27;97929.00;;;1.22;100.00
65754;BME280;52488;47.502;18.940;2022-12-07T02:13:34;97923.25;;;1.26;100.00
65754;BME280;52488;47.502;18.940;2022-12-07T02:14:37;97925.44;;;1.27;100.00
65754;BME280;52488;47.502;18.940;2022-12-07T02:16:08;97924.41;;;1.30;100.00
65754;BME280;52488;47.502;18.940;2022-12-07T02:17:30;97923.88;;;1.32;100.00
65754;BME280;52488;47.502;18.940;2022-12-07T02:20:33;97919.19;;;1.32;100.00
65754;BME280;52488;47.502;18.940;2022-12-07T02:21:54;97920.13;;;1.35;100.00
65754;BME280;52488;47.502;18.940;2022-12-07T02:26:03;97922.91;;;1.43;100.00
65754;BME280;52488;47.502;18.940;2022-12-07T02:27:47;97926.34;;;1.43;100.00
65754;BME280;52488;47.502;18.940;2022-12-07T02:29:13;97928.53;;;1.45;100.00
65754;BME280;52488;47.502;18.940;2022-12-07T02:30:20;97922.59;;;1.46;100.00
65754;BME280;52488;47.502;18.940;2022-12-07T02:31:23;97917.91;;;1.47;100.00
65754;BME280;52488;47.502;18.940;2022-12-07T02:34:08;97919.38;;;1.48;100.00
65754;BME280;52488;47.502;18.940;2022-12-07T02:35:25;97918.84;;;1.49;100.00
65754;BME280;52488;47.502;18.940;2022-12-07T02:36:36;97921.22;;;1.53;100.00
65754;BME280;52488;47.502;18.940;2022-12-07T02:37:59;97926.09;;;1.54;100.00
65754;BME280;52488;47.502;18.940;2022-12-07T02:39:11;97922.47;;;1.52;100.00
65754;BME280;52488;47.502;18.940;2022-12-07T02:41:50;97917.47;;;1.56;100.00
65754;BME280;52488;47.502;18.940;2022-12-07T02:43:04;97916.62;;;1.61;100.00
65754;BME280;52488;47.502;18.940;2022-12-07T02:44:13;97913.41;;;1.63;100.00
65754;BME280;52488;47.502;18.940;2022-12-07T02:45:21;97923.50;;;1.62;100.00
65754;BME280;52488;47.502;18.940;2022-12-07T02:46:34;97926.22;;;1.62;100.00
65754;BME280;52488;47.502;18.940;2022-12-07T02:47:40;97917.03;;;1.65;100.00
65754;BME280;52488;47.502;18.940;2022-12-07T02:48:45;97919.41;;;1.69;100.00
65754;BME280;52488;47.502;18.940;2022-12-07T02:49:49;97913.06;;;1.66;100.00
65754;BME280;52488;47.502;18.940;2022-12-07T02:50:53;97914.00;;;1.69;100.00
65754;BME280;52488;47.502;18.940;2022-12-07T02:51:56;97924.81;;;1.69;100.00
65754;BME280;52488;47.502;18.940;2022-12-07T02:52:59;97916.72;;;1.69;100.00
65754;BME280;52488;47.502;18.940;2022-12-07T02:54:02;97912.31;;;1.66;100.00
65754;BME280;52488;47.502;18.940;2022-12-07T02:55:06;97908.59;;;1.69;100.00
65754;BME280;52488;47.502;18.940;2022-12-07T02:56:30;97908.25;;;1.72;100.00
65754;BME280;52488;47.502;18.940;2022-12-07T02:59:17;97914.59;;;1.75;100.00
65754;BME280;52488;47.502;18.940;2022-12-07T03:00:28;97909.91;;;1.75;100.00
65754;BME280;52488;47.502;18.940;2022-12-07T03:02:03;97908.66;;;1.76;100.00
65754;BME280;52488;47.502;18.940;2022-12-07T03:03:11;97909.19;;;1.75;100.00
65754;BME280;52488;47.502;18.940;2022-12-07T03:06:14;97908.47;;;1.74;100.00
65754;BME280;52488;47.502;18.940;2022-12-07T03:07:39;97905.44;;;1.78;100.00
65754;BME280;52488;47.502;18.940;2022-12-07T03:10:21;97903.22;;;1.76;100.00
65754;BME280;52488;47.502;18.940;2022-12-07T03:11:30;97898.03;;;1.78;100.00
65754;BME280;52488;47.502;18.940;2022-12-07T03:12:57;97898.03;;;1.78;100.00
65754;BME280;52488;47.502;18.940;2022-12-07T03:14:15;97899.47;;;1.79;100.00
65754;BME280;52488;47.502;18.940;2022-12-07T03:15:32;97896.03;;;1.79;100.00
65754;BME280;52488;47.502;18.940;2022-12-07T03:16:40;97892.63;;;1.78;100.00
65754;BME280;52488;47.502;18.940;2022-12-07T03:17:46;97885.59;;;1.83;100.00
65754;BME280;52488;47.502;18.940;2022-12-07T03:18:53;97895.91;;;1.84;100.00
65754;BME280;52488;47.502;18.940;2022-12-07T03:19:59;97896.44;;;1.83;100.00
65754;BME280;52488;47.502;18.940;2022-12-07T03:21:09;97891.34;;;1.79;100.00
65754;BME280;52488;47.502;18.940;2022-12-07T03:22:14;97890.09;;;1.80;100.00
65754;BME280;52488;47.502;18.940;2022-12-07T03:23:18;97892.28;;;1.82;100.00
65754;BME280;52488;47.502;18.940;2022-12-07T03:24:26;97895.19;;;1.84;100.00
65754;BME280;52488;47.502;18.940;2022-12-07T03:25:30;97896.97;;;1.81;100.00
65754;BME280;52488;47.502;18.940;2022-12-07T03:26:41;97885.41;;;1.81;100.00
65754;BME280;52488;47.502;18.940;2022-12-07T03:28:01;97888.66;;;1.79;100.00
65754;BME280;52488;47.502;18.940;2022-12-07T03:29:14;97890.09;;;1.80;100.00
65754;BME280;52488;47.502;18.940;2022-12-07T03:30:24;97890.28;;;1.82;100.00
65754;BME280;52488;47.502;18.940;2022-12-07T03:31:33;97888.50;;;1.85;100.00
65754;BME280;52488;47.502;18.940;2022-12-07T03:32:42;97888.72;;;1.87;100.00
65754;BME280;52488;47.502;18.940;2022-12-07T03:35:11;97896.09;;;1.87;100.00
65754;BME280;52488;47.502;18.940;2022-12-07T03:36:26;97904.22;;;1.87;100.00
65754;BME280;52488;47.502;18.940;2022-12-07T03:37:34;97896.28;;;1.89;100.00
65754;BME280;52488;47.502;18.940;2022-12-07T03:38:57;97904.44;;;1.89;100.00
65754;BME280;52488;47.502;18.940;2022-12-07T03:40:54;97903.91;;;1.90;100.00
65754;BME280;52488;47.502;18.940;2022-12-07T03:41:31;97902.47;;;1.89;100.00
65754;BME280;52488;47.502;18.940;2022-12-07T03:42:39;97906.81;;;1.92;100.00
65754;BME280;52488;47.502;18.940;2022-12-07T03:43:43;97909.38;;;1.98;100.00
65754;BME280;52488;47.502;18.940;2022-12-07T03:44:47;97904.50;;;1.96;100.00
65754;BME280;52488;47.502;18.940;2022-12-07T03:46:00;97899.81;;;1.97;100.00
65754;BME280;52488;47.502;18.940;2022-12-07T03:48:37;97911.25;;;2.03;100.00
65754;BME280;52488;47.502;18.940;2022-12-07T03:49:55;97908.34;;;2.01;100.00
65754;BME280;52488;47.502;18.940;2022-12-07T03:51:11;97908.12;;;1.99;100.00
65754;BME280;52488;47.502;18.940;2022-12-07T03:52:28;97910.84;;;1.99;100.00
65754;BME280;52488;47.502;18.940;2022-12-07T03:53:52;97909.59;;;2.00;100.00
65754;BME280;52488;47.502;18.940;2022-12-07T03:55:16;97910.13;;;1.98;100.00
65754;BME280;52488;47.502;18.940;2022-12-07T03:56:22;97917.53;;;1.98;100.00
65754;BME280;52488;47.502;18.940;2022-12-07T03:57:26;97916.66;;;2.03;100.00
65754;BME280;52488;47.502;18.940;2022-12-07T03:58:31;97913.28;;;2.10;100.00
65754;BME280;52488;47.502;18.940;2022-12-07T03:59:35;97909.44;;;2.05;100.00
65754;BME280;52488;47.502;18.940;2022-12-07T04:00:41;97906.56;;;2.03;100.00
65754;BME280;52488;47.502;18.940;2022-12-07T04:01:45;97908.53;;;2.03;100.00
65754;BME280;52488;47.502;18.940;2022-12-07T04:02:54;97915.94;;;2.02;100.00
65754;BME280;52488;47.502;18.940;2022-12-07T04:03:57;97911.25;;;2.03;100.00
65754;BME280;52488;47.502;18.940;2022-12-07T04:05:01;97901.12;;;2.03;100.00
65754;BME280;52488;47.502;18.940;2022-12-07T04:06:04;97910.00;;;2.04;100.00
65754;BME280;52488;47.502;18.940;2022-12-07T04:07:07;97905.09;;;2.02;100.00
65754;BME280;52488;47.502;18.940;2022-12-07T04:08:10;97909.81;;;2.02;100.00
65754;BME280;52488;47.502;18.940;2022-12-07T04:09:13;97905.81;;;2.03;100.00
65754;BME280;52488;47.502;18.940;2022-12-07T04:10:17;97907.28;;;2.04;100.00
65754;BME280;52488;47.502;18.940;2022-12-07T04:11:20;97904.56;;;2.04;100.00
65754;BME280;52488;47.502;18.940;2022-12-07T04:12:22;97914.16;;;2.05;100.00
65754;BME280;52488;47.502;18.940;2022-12-07T04:13:29;97914.53;;;2.09;100.00
65754;BME280;52488;47.502;18.940;2022-12-07T04:14:32;97911.13;;;2.08;100.00
65754;BME280;52488;47.502;18.940;2022-12-07T04:15:34;97921.41;;;2.10;100.00
65754;BME280;52488;47.502;18.940;2022-12-07T04:16:37;97914.75;;;2.11;100.00
65754;BME280;52488;47.502;18.940;2022-12-07T04:17:46;97921.09;;;2.14;100.00
65754;BME280;52488;47.502;18.940;2022-12-07T04:18:48;97921.28;;;2.16;100.00
65754;BME280;52488;47.502;18.940;2022-12-07T04:19:51;97906.28;;;2.15;100.00
65754;BME280;52488;47.502;18.940;2022-12-07T04:20:54;97916.41;;;2.14;100.00
65754;BME280;52488;47.502;18.940;2022-12-07T04:21:58;97914.22;;;2.12;100.00
65754;BME280;52488;47.502;18.940;2022-12-07T04:23:01;97920.37;;;2.13;100.00
65754;BME280;52488;47.502;18.940;2022-12-07T04:24:04;97915.69;;;2.14;100.00
65754;BME280;52488;47.502;18.940;2022-12-07T04:25:07;97922.91;;;2.11;100.00
65754;BME280;52488;47.502;18.940;2022-12-07T04:26:10;97922.16;;;2.10;100.00
65754;BME280;52488;47.502;18.940;2022-12-07T04:27:13;97914.00;;;2.10;100.00
65754;BME280;52488;47.502;18.940;2022-12-07T04:28:16;97913.88;;;2.16;100.00
65754;BME280;52488;47.502;18.940;2022-12-07T04:29:19;97919.50;;;2.18;100.00
65754;BME280;52488;47.502;18.940;2022-12-07T04:30:22;97911.97;;;2.24;100.00
65754;BME280;52488;47.502;18.940;2022-12-07T04:31:24;97910.72;;;2.25;100.00
65754;BME280;52488;47.502;18.940;2022-12-07T04:32:27;97915.22;;;2.23;100.00
65754;BME280;52488;47.502;18.940;2022-12-07T04:33:30;97919.91;;;2.22;100.00
65754;BME280;52488;47.502;18.940;2022-12-07T04:34:33;97905.97;;;2.18;100.00
65754;BME280;52488;47.502;18.940;2022-12-07T04:35:35;97907.56;;;2.14;100.00
65754;BME280;52488;47.502;18.940;2022-12-07T04:36:39;97915.72;;;2.21;100.00
65754;BME280;52488;47.502;18.940;2022-12-07T04:37:42;97909.25;;;2.24;100.00
65754;BME280;52488;47.502;18.940;2022-12-07T04:38:44;97907.72;;;2.16;100.00
65754;BME280;52488;47.502;18.940;2022-12-07T04:39:47;97908.81;;;2.12;100.00
65754;BME280;52488;47.502;18.940;2022-12-07T04:40:50;97908.09;;;2.12;100.00
65754;BME280;52488;47.502;18.940;2022-12-07T04:41:52;97914.63;;;2.17;100.00
65754;BME280;52488;47.502;18.940;2022-12-07T04:43:01;97907.72;;;2.16;100.00
65754;BME280;52488;47.502;18.940;2022-12-07T04:44:04;97923.88;;;2.21;100.00
65754;BME280;52488;47.502;18.940;2022-12-07T04:45:09;97923.13;;;2.21;100.00
65754;BME280;52488;47.502;18.940;2022-12-07T04:46:12;97922.22;;;2.18;100.00
65754;BME280;52488;47.502;18.940;2022-12-07T04:47:15;97922.22;;;2.18;100.00
65754;BME280;52488;47.502;18.940;2022-12-07T04:48:18;97921.50;;;2.18;100.00
65754;BME280;52488;47.502;18.940;2022-12-07T04:49:21;97922.69;;;2.30;100.00
65754;BME280;52488;47.502;18.940;2022-12-07T04:50:24;97924.44;;;2.27;100.00
65754;BME280;52488;47.502;18.940;2022-12-07T04:51:28;97932.72;;;2.22;100.00
65754;BME280;52488;47.502;18.940;2022-12-07T04:52:31;97929.09;;;2.19;100.00
65754;BME280;52488;47.502;18.940;2022-12-07T04:53:37;97922.53;;;2.15;100.00
65754;BME280;52488;47.502;18.940;2022-12-07T04:54:40;97931.22;;;2.13;100.00
65754;BME280;52488;47.502;18.940;2022-12-07T04:55:44;97925.78;;;2.13;100.00
65754;BME280;52488;47.502;18.940;2022-12-07T04:56:47;97929.03;;;2.11;100.00
65754;BME280;52488;47.502;18.940;2022-12-07T04:57:50;97929.03;;;2.11;100.00
65754;BME280;52488;47.502;18.940;2022-12-07T04:58:53;97914.75;;;2.11;100.00
65754;BME280;52488;47.502;18.940;2022-12-07T04:59:56;97923.09;;;2.13;100.00
65754;BME280;52488;47.502;18.940;2022-12-07T05:00:59;97920.50;;;2.07;100.00
65754;BME280;52488;47.502;18.940;2022-12-07T05:02:02;97918.13;;;2.04;100.00
65754;BME280;52488;47.502;18.940;2022-12-07T05:03:05;97913.63;;;2.06;100.00
65754;BME280;52488;47.502;18.940;2022-12-07T05:04:08;97920.91;;;2.11;100.00
65754;BME280;52488;47.502;18.940;2022-12-07T05:05:11;97915.09;;;2.07;100.00
65754;BME280;52488;47.502;18.940;2022-12-07T05:06:14;97914.38;;;2.07;100.00
65754;BME280;52488;47.502;18.940;2022-12-07T05:07:17;97921.22;;;2.08;100.00
65754;BME280;52488;47.502;18.940;2022-12-07T05:08:20;97916.81;;;2.18;100.00
65754;BME280;52488;47.502;18.940;2022-12-07T05:09:23;97920.56;;;2.15;100.00
65754;BME280;52488;47.502;18.940;2022-12-07T05:10:26;97918.25;;;2.19;100.00
65754;BME280;52488;47.502;18.940;2022-12-07T05:11:28;97920.78;;;2.17;100.00
65754;BME280;52488;47.502;18.940;2022-12-07T05:12:40;97920.37;;;2.13;100.00
65754;BME280;52488;47.502;18.940;2022-12-07T05:13:43;97917.06;;;2.07;100.00
65754;BME280;52488;47.502;18.940;2022-12-07T05:14:46;97921.56;;;2.04;100.00
65754;BME280;52488;47.502;18.940;2022-12-07T05:15:49;97916.12;;;2.04;100.00
65754;BME280;52488;47.502;18.940;2022-12-07T05:16:52;97912.06;;;2.11;100.00
65754;BME280;52488;47.502;18.940;2022-12-07T05:17:55;97913.50;;;2.12;100.00
65754;BME280;52488;47.502;18.940;2022-12-07T05:18:58;97909.72;;;2.15;100.00
65754;BME280;52488;47.502;18.940;2022-12-07T05:20:01;97906.63;;;2.11;100.00
65754;BME280;52488;47.502;18.940;2022-12-07T05:21:04;97904.25;;;2.07;100.00
65754;BME280;52488;47.502;18.940;2022-12-07T05:22:07;97904.78;;;2.06;100.00
65754;BME280;52488;47.502;18.940;2022-12-07T05:23:10;97904.13;;;2.13;100.00
65754;BME280;52488;47.502;18.940;2022-12-07T05:24:15;97900.53;;;2.18;100.00
65754;BME280;52488;47.502;18.940;2022-12-07T05:25:18;97898.88;;;2.15;100.00
65754;BME280;52488;47.502;18.940;2022-12-07T05:26:21;97899.22;;;2.11;100.00
65754;BME280;52488;47.502;18.940;2022-12-07T05:27:24;97903.56;;;2.15;100.00
65754;BME280;52488;47.502;18.940;2022-12-07T05:28:26;97905.03;;;2.16;100.00
65754;BME280;52488;47.502;18.940;2022-12-07T05:29:29;97913.16;;;2.16;100.00
65754;BME280;52488;47.502;18.940;2022-12-07T05:30:32;97907.00;;;2.15;100.00
65754;BME280;52488;47.502;18.940;2022-12-07T05:31:34;97912.09;;;2.19;100.00
65754;BME280;52488;47.502;18.940;2022-12-07T05:32:37;97911.38;;;2.18;100.00
65754;BME280;52488;47.502;18.940;2022-12-07T05:33:40;97907.22;;;2.17;100.00
65754;BME280;52488;47.502;18.940;2022-12-07T05:34:42;97904.81;;;2.34;100.00
65754;BME280;52488;47.502;18.940;2022-12-07T05:35:45;97914.53;;;2.30;100.00
65754;BME280;52488;47.502;18.940;2022-12-07T05:36:48;97909.44;;;2.26;100.00
65754;BME280;52488;47.502;18.940;2022-12-07T05:37:51;97914.16;;;2.26;100.00
65754;BME280;52488;47.502;18.940;2022-12-07T05:38:54;97906.56;;;2.24;100.00
65754;BME280;52488;47.502;18.940;2022-12-07T05:39:57;97911.78;;;2.22;100.00
65754;BME280;52488;47.502;18.940;2022-12-07T05:41:04;97913.22;;;2.23;100.00
65754;BME280;52488;47.502;18.940;2022-12-07T05:42:09;97909.66;;;2.28;100.00
65754;BME280;52488;47.502;18.940;2022-12-07T05:43:16;97908.72;;;2.26;100.00
65754;BME280;52488;47.502;18.940;2022-12-07T05:44:18;97902.03;;;2.27;100.00
65754;BME280;52488;47.502;18.940;2022-12-07T05:45:21;97904.97;;;2.29;100.00
65754;BME280;52488;47.502;18.940;2022-12-07T05:46:24;97908.19;;;2.27;100.00
65754;BME280;52488;47.502;18.940;2022-12-07T05:47:27;97899.69;;;2.23;100.00
65754;BME280;52488;47.502;18.940;2022-12-07T05:48:30;97910.84;;;2.20;100.00
65754;BME280;52488;47.502;18.940;2022-12-07T05:49:33;97908.69;;;2.18;100.00
65754;BME280;52488;47.502;18.940;2022-12-07T05:50:35;97907.72;;;2.16;100.00
65754;BME280;52488;47.502;18.940;2022-12-07T05:51:38;97909.72;;;2.15;100.00
65754;BME280;52488;47.502;18.940;2022-12-07T05:52:41;97916.41;;;2.14;100.00
65754;BME280;52488;47.502;18.940;2022-12-07T05:53:44;97909.53;;;2.13;100.00
65754;BME280;52488;47.502;18.940;2022-12-07T05:54:47;97900.16;;;2.14;100.00
65754;BME280;52488;47.502;18.940;2022-12-07T05:55:52;97904.66;;;2.11;100.00
65754;BME280;52488;47.502;18.940;2022-12-07T05:56:55;97907.34;;;2.11;100.00
65754;BME280;52488;47.502;18.940;2022-12-07T05:57:58;97913.50;;;2.12;100.00
65754;BME280;52488;47.502;18.940;2022-12-07T05:59:19;97914.22;;;2.12;100.00
65754;BME280;52488;47.502;18.940;2022-12-07T06:00:24;97908.28;;;2.14;100.00
65754;BME280;52488;47.502;18.940;2022-12-07T06:01:27;97907.34;;;2.11;100.00
65754;BME280;52488;47.502;18.940;2022-12-07T06:02:30;97913.50;;;2.12;100.00